Delhi, LA

3:22 PM CDT on August 01, 2015 (GMT -0500)
Rayville Airport | | Change Station
CLOSE
Current Station
Personal Weather Station
Location: Rayville, LA
Elevation: 105 ft
Nearby Weather Stations

Elev 105 ft 32.48 °N, 91.77 °W | Updated 5 minutes ago

Clear
Clear
94.1 °F
Feels Like 94 °F
N
10.0
Wind Variable Wind from NNE
Gusts 19.0 mph

Today
High -- | Low -- °F
--% Chance of Precip.
Yesterday
High -- | Low -- °F
Precip. -- in
6:20 AM 8:04 PM
Full, 97% visible
Pressure 29.98 in
Visibility 10.0 miles
Clouds Clear
Heat Index 94 °F
Dew Point 61 °F
Humidity 33%
Rainfall 0.00 in
Snow Depth Not available.
UV 10 out of 12
Pollen 4.90 out of 12
Air Quality Not available.
Flu Activity Not available.
METAR KTVR 011953Z AUTO 03010KT 10SM CLR 35/16 A2996 RMK AO2 SLP152 T03500161

More Conditions Fewer Conditions

Pressure 29.98 in
Visibility 10.0 miles
Clouds Clear
Heat Index 94 °F
Dew Point 61 °F
Humidity 33%
Rainfall 0.00 in
Snow Depth Not available.
UV 10 out of 12
Pollen 4.90 out of 12
Air Quality Not available.
Flu Activity Not available.
METAR KTVR 011953Z AUTO 03010KT 10SM CLR 35/16 A2996 RMK AO2 SLP152 T03500161

More Conditions Fewer Conditions

10-Day Weather Forecast

×

Almanac

Astronomy

Aug. 01, 2015 Rise Set
Actual Time
Civil Twilight
Nautical Twilight
Astronomical Twilight
Moon
Length of Visible Light
Length of Day
Tomorrow will be .
, % of the Moon is Illuminated

Today's Extremes

State Highs State Lows

Community

WunderPhotos

Upload Photos

1,843,050 photos uploaded!

WunderBlogs® & News

Nearby

Air Quality

  Air Quality AQ Index Pollutant
Not available.

Snow Depth

Station Depth Elevation

Earthquake Activity

City Distance Mag. Time & Date
Minimum magnitude displayed is 2.5.

Coastal Water Temperatures

Place Temperature

Stations

Nearby Weather Stations

Station Location Temp. Windchill Dew Point Humidity Wind Precip. Elev Updated Type